createdAt,value
2023-04-23T00:00:17.249Z,6.50
2023-04-23T00:03:06.293Z,5.90
2023-04-23T00:05:53.189Z,5.33
2023-04-23T00:08:39.852Z,5.20
2023-04-23T00:11:24.128Z,5.87
2023-04-23T00:14:08.292Z,5.77
2023-04-23T00:16:54.084Z,5.43
2023-04-23T00:19:37.890Z,5.50
2023-04-23T00:22:22.221Z,7.30
2023-04-23T00:25:06.716Z,7.80
2023-04-23T00:27:50.755Z,6.70
2023-04-23T00:30:34.894Z,6.23
2023-04-23T00:33:20.945Z,6.97
2023-04-23T00:36:04.831Z,6.10
2023-04-23T00:38:48.638Z,5.33
2023-04-23T00:41:32.910Z,5.50
2023-04-23T00:44:16.867Z,6.40
2023-04-23T00:47:01.960Z,6.33
2023-04-23T00:49:47.614Z,5.50
2023-04-23T00:52:31.794Z,5.60
2023-04-23T00:55:15.968Z,5.60
2023-04-23T00:58:00.856Z,6.03
2023-04-23T01:00:48.600Z,5.70
2023-04-23T01:03:33.358Z,8.43
2023-04-23T01:06:19.070Z,7.27
2023-04-23T01:09:03.660Z,6.33
2023-04-23T01:11:48.604Z,6.07
2023-04-23T01:14:32.856Z,6.63
2023-04-23T01:17:17.181Z,6.57
2023-04-23T01:20:01.068Z,8.00
2023-04-23T01:22:49.467Z,6.60
2023-04-23T01:25:33.541Z,6.80
2023-04-23T01:28:17.649Z,7.20
2023-04-23T01:31:02.532Z,6.60
2023-04-23T01:33:47.977Z,6.40
2023-04-23T01:36:32.646Z,7.30
2023-04-23T01:39:18.353Z,7.00
2023-04-23T01:42:02.891Z,6.53
2023-04-23T01:44:47.259Z,6.17
2023-04-23T01:47:32.339Z,6.63
2023-04-23T01:50:16.644Z,6.27
2023-04-23T01:53:00.545Z,5.83
2023-04-23T01:55:48.203Z,6.23
2023-04-23T01:58:32.430Z,6.73
2023-04-23T02:01:16.396Z,7.00
2023-04-23T02:04:00.443Z,6.27
2023-04-23T02:06:47.231Z,6.00
2023-04-23T02:09:31.195Z,5.97
2023-04-23T02:12:19.565Z,5.00
2023-04-23T02:15:03.774Z,5.70
2023-04-23T02:17:52.437Z,5.73
2023-04-23T02:20:38.913Z,5.50
2023-04-23T02:23:22.816Z,5.90
2023-04-23T02:26:07.907Z,6.20
2023-04-23T02:28:53.325Z,6.00
2023-04-23T02:31:37.365Z,6.33
2023-04-23T02:34:21.249Z,6.33
2023-04-23T02:37:06.306Z,5.17
2023-04-23T02:39:50.452Z,5.83
2023-04-23T02:42:34.496Z,6.23
2023-04-23T02:45:20.002Z,6.63
2023-04-23T02:48:04.370Z,8.17
2023-04-23T02:50:48.400Z,7.90
2023-04-23T02:53:32.432Z,7.50
2023-04-23T02:56:16.632Z,8.37
2023-04-23T02:59:01.525Z,11.83
2023-04-23T03:01:46.938Z,10.10
2023-04-23T03:04:32.024Z,8.00
2023-04-23T03:07:17.512Z,7.47
2023-04-23T03:10:01.501Z,10.37
2023-04-23T03:12:48.476Z,7.80
2023-04-23T03:15:32.721Z,7.60
2023-04-23T03:18:18.106Z,6.57
2023-04-23T03:21:05.462Z,6.70
2023-04-23T03:23:49.424Z,7.23
2023-04-23T03:26:34.769Z,6.87
2023-04-23T03:29:18.798Z,7.70
2023-04-23T03:32:02.994Z,7.20
2023-04-23T03:34:49.038Z,7.03
2023-04-23T03:37:33.508Z,7.70
2023-04-23T03:40:17.948Z,9.47
2023-04-23T03:43:05.193Z,9.00
2023-04-23T03:46:09.080Z,8.97
2023-04-23T03:48:56.880Z,8.53
2023-04-23T03:51:45.748Z,8.27
2023-04-23T03:54:29.924Z,9.07
2023-04-23T03:57:33.239Z,9.40
2023-04-23T04:00:33.798Z,9.33
2023-04-23T04:03:17.999Z,8.90
2023-04-23T04:06:02.235Z,8.67
2023-04-23T04:08:47.850Z,8.77
2023-04-23T04:11:31.822Z,9.67
2023-04-23T04:14:15.749Z,10.70
2023-04-23T04:17:00.237Z,11.23
2023-04-23T04:19:44.222Z,10.30
2023-04-23T04:22:28.179Z,9.10
2023-04-23T04:25:13.494Z,8.07
2023-04-23T04:27:57.658Z,10.30
2023-04-23T04:30:42.618Z,9.60
2023-04-23T04:33:27.016Z,9.40
2023-04-23T04:36:11.099Z,10.13
2023-04-23T04:38:56.121Z,11.30
2023-04-23T04:41:41.729Z,10.80
2023-04-23T04:44:25.573Z,12.07
2023-04-23T04:47:09.537Z,11.10
2023-04-23T04:49:57.178Z,10.23
2023-04-23T04:52:41.128Z,10.50
2023-04-23T04:55:25.116Z,9.00
2023-04-23T04:58:10.383Z,8.73
2023-04-23T05:00:55.912Z,9.07
2023-04-23T05:03:40.126Z,8.87
2023-04-23T05:06:24.135Z,8.57
2023-04-23T05:09:08.320Z,9.00
2023-04-23T05:11:52.968Z,8.60
2023-04-23T05:14:38.261Z,7.97
2023-04-23T05:17:22.432Z,7.43
2023-04-23T05:20:08.436Z,7.77
2023-04-23T05:22:52.324Z,8.40
2023-04-23T05:25:36.226Z,9.33
2023-04-23T05:28:20.029Z,13.10
2023-04-23T05:31:05.440Z,33.90
2023-04-23T05:33:50.685Z,46.83
2023-04-23T05:36:35.057Z,48.60
2023-04-23T05:39:18.894Z,52.27
2023-04-23T05:42:03.213Z,53.50
2023-04-23T05:44:47.256Z,54.10
2023-04-23T05:47:32.513Z,56.10
2023-04-23T05:50:17.135Z,55.00
2023-04-23T05:53:00.957Z,50.67
2023-04-23T05:55:44.826Z,46.13
2023-04-23T05:58:28.596Z,49.93
2023-04-23T06:01:12.514Z,37.17
2023-04-23T06:03:58.068Z,31.87
2023-04-23T06:06:42.412Z,27.10
2023-04-23T06:09:26.436Z,27.30
2023-04-23T06:12:11.942Z,26.50
2023-04-23T06:14:56.813Z,37.03
2023-04-23T06:17:41.907Z,33.90
2023-04-23T06:20:27.253Z,43.10
2023-04-23T06:23:11.127Z,45.23
2023-04-23T06:25:55.045Z,43.93
2023-04-23T06:28:39.628Z,45.17
2023-04-23T06:31:43.876Z,38.33
2023-04-23T06:34:27.832Z,35.77
2023-04-23T06:37:13.013Z,32.90
2023-04-23T06:39:56.840Z,36.77
2023-04-23T06:42:40.797Z,41.93
2023-04-23T06:45:35.374Z,38.60
2023-04-23T06:48:19.346Z,31.57
2023-04-23T06:51:03.258Z,29.07
2023-04-23T06:53:48.661Z,32.00
2023-04-23T06:56:32.579Z,31.90
2023-04-23T06:59:17.023Z,33.63
2023-04-23T07:02:04.245Z,37.90
2023-04-23T07:04:48.156Z,34.17
2023-04-23T07:07:32.554Z,35.30
2023-04-23T07:10:18.235Z,31.13
2023-04-23T07:13:03.688Z,31.37
2023-04-23T07:15:49.116Z,36.00
2023-04-23T07:18:33.827Z,38.23
2023-04-23T07:21:18.180Z,35.97
2023-04-23T07:24:07.045Z,34.73
2023-04-23T07:26:52.798Z,32.43
2023-04-23T07:29:36.649Z,33.47
2023-04-23T07:32:22.165Z,27.50
2023-04-23T07:35:07.269Z,19.10
2023-04-23T07:37:53.938Z,14.32
2023-04-23T07:40:38.175Z,12.98
2023-04-23T07:43:23.423Z,14.13
2023-04-23T07:46:08.931Z,12.75
2023-04-23T07:48:53.146Z,9.90
2023-04-23T07:51:37.002Z,9.55
2023-04-23T07:54:20.889Z,10.02
2023-04-23T07:57:04.810Z,9.68
2023-04-23T07:59:50.210Z,8.60
2023-04-23T08:02:34.081Z,9.18
2023-04-23T08:05:18.172Z,9.88
2023-04-23T08:08:02.039Z,9.02
2023-04-23T08:10:46.855Z,8.77
2023-04-23T08:13:30.737Z,9.05
2023-04-23T08:16:16.529Z,7.70
2023-04-23T08:21:47.283Z,7.13
2023-04-23T08:24:31.243Z,6.38
2023-04-23T08:27:15.189Z,7.13
2023-04-23T08:29:58.926Z,6.75
2023-04-23T08:32:44.357Z,6.68
2023-04-23T08:35:28.177Z,6.03
2023-04-23T08:38:12.053Z,6.60
2023-04-23T08:40:58.940Z,5.80
2023-04-23T08:43:52.920Z,6.80
2023-04-23T08:46:38.647Z,6.15
2023-04-23T08:49:24.333Z,5.70
2023-04-23T08:52:18.176Z,5.85
2023-04-23T08:55:03.775Z,6.05
2023-04-23T08:57:49.767Z,4.85
2023-04-23T09:00:35.584Z,4.95
2023-04-23T09:03:20.887Z,5.20
2023-04-23T09:06:06.639Z,7.18
2023-04-23T09:08:50.796Z,5.30
2023-04-23T09:11:37.270Z,5.97
2023-04-23T09:14:22.713Z,5.83
2023-04-23T09:17:07.064Z,8.47
2023-04-23T09:19:52.385Z,7.40
2023-04-23T09:22:47.114Z,5.30
2023-04-23T09:25:31.455Z,5.90
2023-04-23T09:28:15.569Z,6.97
2023-04-23T09:31:00.936Z,7.03
2023-04-23T09:33:45.328Z,6.63
2023-04-23T09:36:29.190Z,6.73
2023-04-23T09:39:15.410Z,7.57
2023-04-23T09:42:05.643Z,5.30
2023-04-23T09:44:58.449Z,5.60
2023-04-23T09:47:50.774Z,5.40
2023-04-23T09:50:37.071Z,5.40
2023-04-23T09:53:21.317Z,11.73
2023-04-23T09:56:08.507Z,12.93
2023-04-23T09:58:52.388Z,13.57
2023-04-23T10:01:36.315Z,18.40
2023-04-23T10:04:22.464Z,15.90
2023-04-23T10:10:00.535Z,9.23
2023-04-23T10:12:54.898Z,10.13
2023-04-23T10:15:39.682Z,10.80
2023-04-23T10:18:23.557Z,11.00
2023-04-23T10:21:08.424Z,7.30
2023-04-23T10:23:52.851Z,8.23
2023-04-23T10:26:40.516Z,8.50
2023-04-23T10:29:29.215Z,7.67
2023-04-23T10:32:13.959Z,14.70
2023-04-23T10:34:57.968Z,18.03
2023-04-23T10:37:42.844Z,13.30
2023-04-23T10:40:31.748Z,9.37
2023-04-23T10:43:16.231Z,7.40
2023-04-23T10:46:01.724Z,6.63
2023-04-23T10:49:07.678Z,6.70
2023-04-23T10:52:18.918Z,4.45
2023-04-23T10:55:03.480Z,5.15
2023-04-23T10:58:02.884Z,5.20
2023-04-23T11:00:47.833Z,5.22
2023-04-23T11:03:43.599Z,5.72
2023-04-23T11:06:54.899Z,5.35
2023-04-23T11:09:44.520Z,5.60
2023-04-23T11:12:35.132Z,6.28
2023-04-23T11:15:20.912Z,5.28
2023-04-23T11:18:04.832Z,5.18
2023-04-23T11:20:51.533Z,4.38
2023-04-23T11:23:35.442Z,4.10
2023-04-23T11:26:19.586Z,5.90
2023-04-23T11:29:04.888Z,4.05
2023-04-23T11:32:01.524Z,4.60
2023-04-23T11:34:50.029Z,3.88
2023-04-23T11:37:39.681Z,3.85
2023-04-23T11:40:24.425Z,3.85
2023-04-23T11:43:09.685Z,5.65
2023-04-23T11:45:53.857Z,4.20
2023-04-23T11:48:37.760Z,4.03
2023-04-23T11:51:27.314Z,4.35
2023-04-23T11:54:13.900Z,3.17
2023-04-23T11:56:59.864Z,3.70
2023-04-23T11:59:44.213Z,3.15
2023-04-23T12:02:28.879Z,3.58
2023-04-23T12:05:13.029Z,2.85
2023-04-23T12:08:07.649Z,3.13
2023-04-23T12:10:54.517Z,3.30
2023-04-23T12:13:42.903Z,2.75
2023-04-23T12:16:36.247Z,2.80
2023-04-23T12:19:22.050Z,2.80
2023-04-23T12:22:08.280Z,3.22
2023-04-23T12:24:53.601Z,2.72
2023-04-23T12:27:42.669Z,2.58
2023-04-23T12:30:29.940Z,3.42
2023-04-23T12:33:13.857Z,4.20
2023-04-23T12:35:58.300Z,4.35
2023-04-23T12:38:42.621Z,4.57
2023-04-23T12:41:26.485Z,4.05
2023-04-23T12:44:12.229Z,3.85
2023-04-23T12:46:58.131Z,4.38
2023-04-23T12:49:44.060Z,4.57
2023-04-23T12:52:30.622Z,4.22
2023-04-23T12:55:14.516Z,3.75
2023-04-23T12:58:00.747Z,5.50
2023-04-23T13:00:46.482Z,5.22
2023-04-23T13:03:30.502Z,4.15
2023-04-23T13:06:14.362Z,3.90
2023-04-23T13:08:58.300Z,4.78
2023-04-23T13:11:42.688Z,4.15
2023-04-23T13:14:27.249Z,4.10
2023-04-23T13:17:12.600Z,3.88
2023-04-23T13:19:57.297Z,3.90
2023-04-23T13:22:41.224Z,4.28
2023-04-23T13:25:25.140Z,4.65
2023-04-23T13:28:09.089Z,4.18
2023-04-23T13:30:52.987Z,4.00
2023-04-23T13:33:38.252Z,3.92
2023-04-23T13:36:22.395Z,4.22
2023-04-23T13:39:07.311Z,4.32
2023-04-23T13:42:06.065Z,4.22
2023-04-23T13:44:52.654Z,3.92
2023-04-23T13:47:36.720Z,4.20
2023-04-23T13:50:22.420Z,4.20
2023-04-23T13:53:06.397Z,4.57
2023-04-23T13:55:50.233Z,4.50
2023-04-23T13:58:34.100Z,4.95
2023-04-23T14:01:18.018Z,4.30
2023-04-23T14:04:04.432Z,4.20
2023-04-23T14:06:50.137Z,5.35
2023-04-23T14:09:34.124Z,4.43
2023-04-23T14:12:18.720Z,4.60
2023-04-23T14:15:02.966Z,4.50
2023-04-23T14:17:49.316Z,5.97
2023-04-23T14:20:33.355Z,8.93
2023-04-23T14:23:50.519Z,5.53
2023-04-23T14:26:48.052Z,4.90
2023-04-23T14:29:37.909Z,6.13
2023-04-23T14:32:21.876Z,6.22
2023-04-23T14:35:06.470Z,8.73
2023-04-23T14:37:50.578Z,7.63
2023-04-23T14:40:35.877Z,5.65
2023-04-23T14:43:19.988Z,5.30
2023-04-23T14:46:03.910Z,5.97
2023-04-23T14:48:48.571Z,5.88
2023-04-23T14:51:33.917Z,4.65
2023-04-23T14:54:18.190Z,4.97
2023-04-23T14:57:03.679Z,5.82
2023-04-23T14:59:47.778Z,6.45
2023-04-23T15:02:32.988Z,5.53
2023-04-23T15:05:17.036Z,5.25
2023-04-23T15:08:01.574Z,6.60
2023-04-23T15:10:45.705Z,7.35
2023-04-23T15:13:40.213Z,4.78
2023-04-23T15:16:47.386Z,4.70
2023-04-23T15:19:32.987Z,4.95
2023-04-23T15:22:16.868Z,4.20
2023-04-23T15:25:00.815Z,4.60
2023-04-23T15:27:46.062Z,5.30
2023-04-23T15:30:31.448Z,5.00
2023-04-23T15:33:15.461Z,4.88
2023-04-23T15:35:59.986Z,4.80
2023-04-23T15:38:44.231Z,5.35
2023-04-23T15:41:28.224Z,7.93
2023-04-23T15:44:12.707Z,5.35
2023-04-23T15:47:01.337Z,6.28
2023-04-23T15:49:45.194Z,6.80
2023-04-23T15:52:29.107Z,8.48
2023-04-23T15:55:13.061Z,5.93
2023-04-23T15:57:59.064Z,7.38
2023-04-23T16:00:42.969Z,6.80
2023-04-23T16:03:28.398Z,11.07
2023-04-23T16:06:12.613Z,11.15
2023-04-23T16:08:56.539Z,5.07
2023-04-23T16:11:40.898Z,6.00
2023-04-23T16:14:24.780Z,7.13
2023-04-23T16:17:08.651Z,6.73
2023-04-23T16:19:53.926Z,6.10
2023-04-23T16:22:37.827Z,7.90
2023-04-23T16:25:21.857Z,8.03
2023-04-23T16:28:06.300Z,7.10
2023-04-23T16:30:50.476Z,7.00
2023-04-23T16:33:34.689Z,6.03
2023-04-23T16:36:21.423Z,7.53
2023-04-23T16:39:05.690Z,6.87
2023-04-23T16:41:49.788Z,7.23
2023-04-23T16:44:33.855Z,7.10
2023-04-23T16:47:18.074Z,6.57
2023-04-23T16:50:02.223Z,6.40
2023-04-23T16:52:50.737Z,8.23
2023-04-23T16:55:34.744Z,5.80
2023-04-23T16:58:19.130Z,7.23
2023-04-23T17:01:03.224Z,7.27
2023-04-23T17:03:47.501Z,6.70
2023-04-23T17:06:33.464Z,6.33
2023-04-23T17:09:20.215Z,6.53
2023-04-23T17:12:04.458Z,7.33
2023-04-23T17:14:48.698Z,6.10
2023-04-23T17:17:32.862Z,6.87
2023-04-23T17:20:17.082Z,6.90
2023-04-23T17:23:01.443Z,6.90
2023-04-23T17:25:47.191Z,6.30
2023-04-23T17:28:31.344Z,6.70
2023-04-23T17:31:15.924Z,6.70
2023-04-23T17:34:00.116Z,7.67
2023-04-23T17:36:44.499Z,6.93
2023-04-23T17:39:28.789Z,6.77
2023-04-23T17:42:14.857Z,7.70
2023-04-23T17:44:59.341Z,6.60
2023-04-23T17:47:43.731Z,8.20
2023-04-23T17:50:28.612Z,7.57
2023-04-23T17:53:12.767Z,6.67
2023-04-23T17:56:00.662Z,7.27
2023-04-23T17:58:46.700Z,6.13
2023-04-23T18:01:31.087Z,6.57
2023-04-23T18:04:17.516Z,6.63
2023-04-23T18:07:02.361Z,6.47
2023-04-23T18:09:47.424Z,6.10
2023-04-23T18:12:32.196Z,6.20
2023-04-23T18:15:17.907Z,6.27
2023-04-23T18:18:02.285Z,5.53
2023-04-23T18:20:47.733Z,5.90
2023-04-23T18:23:32.521Z,5.47
2023-04-23T18:26:16.846Z,5.80
2023-04-23T18:29:01.213Z,6.47
2023-04-23T18:31:46.864Z,6.67
2023-04-23T18:34:32.956Z,7.90
2023-04-23T18:37:34.104Z,8.80
2023-04-23T18:40:18.812Z,8.50
2023-04-23T18:43:04.077Z,9.87
2023-04-23T18:45:48.496Z,8.80
2023-04-23T18:48:59.635Z,6.93
2023-04-23T18:51:47.213Z,6.07
2023-04-23T18:54:31.717Z,6.23
2023-04-23T18:57:16.165Z,6.13
2023-04-23T19:00:00.404Z,6.03
2023-04-23T19:02:44.852Z,6.17
2023-04-23T19:05:31.986Z,5.77
2023-04-23T19:08:18.071Z,6.63
2023-04-23T19:11:02.905Z,5.80
2023-04-23T19:13:47.119Z,7.10
2023-04-23T19:16:31.708Z,9.10
2023-04-23T19:19:16.217Z,5.97
2023-04-23T19:22:04.283Z,6.00
2023-04-23T19:24:48.410Z,6.50
2023-04-23T19:27:32.560Z,6.43
2023-04-23T19:30:16.884Z,6.50
2023-04-23T19:33:01.355Z,7.10
2023-04-23T19:35:46.154Z,6.50
2023-04-23T19:38:31.759Z,6.40
2023-04-23T19:41:15.818Z,6.63
2023-04-23T19:44:00.148Z,6.40
2023-04-23T19:46:44.524Z,7.50
2023-04-23T19:49:29.224Z,6.73
2023-04-23T19:52:18.550Z,6.10
2023-04-23T19:55:04.527Z,8.47
2023-04-23T19:57:49.336Z,7.87
2023-04-23T20:00:42.618Z,8.23
2023-04-23T20:03:28.090Z,6.63
2023-04-23T20:06:12.710Z,6.90
2023-04-23T20:09:07.869Z,6.03
2023-04-23T20:11:53.852Z,6.77
2023-04-23T20:14:38.129Z,6.93
2023-04-23T20:17:22.409Z,6.97
2023-04-23T20:20:10.882Z,7.33
2023-04-23T20:22:55.246Z,7.53
2023-04-23T20:25:41.887Z,7.30
2023-04-23T20:28:27.638Z,6.23
2023-04-23T20:31:11.517Z,6.50
2023-04-23T20:33:55.967Z,7.37
2023-04-23T20:36:39.877Z,6.93
2023-04-23T20:39:24.477Z,6.60
2023-04-23T20:42:08.978Z,6.80
2023-04-23T20:44:54.203Z,6.73
2023-04-23T20:47:38.152Z,6.80
2023-04-23T20:50:22.309Z,8.80
2023-04-23T20:53:06.711Z,7.17
2023-04-23T20:55:50.961Z,7.03
2023-04-23T20:58:34.766Z,7.20
2023-04-23T21:01:20.084Z,7.27
2023-04-23T21:04:04.282Z,7.37
2023-04-23T21:06:48.362Z,6.53
2023-04-23T21:09:32.384Z,6.83
2023-04-23T21:12:16.199Z,6.40
2023-04-23T21:15:00.682Z,7.03
2023-04-23T21:17:45.898Z,6.67
2023-04-23T21:20:29.861Z,7.00
2023-04-23T21:23:13.977Z,7.67
2023-04-23T21:25:57.840Z,7.60
2023-04-23T21:28:41.753Z,7.43
2023-04-23T21:31:35.126Z,7.33
2023-04-23T21:34:21.491Z,7.63
2023-04-23T21:37:05.339Z,7.50
2023-04-23T21:39:49.175Z,7.80
2023-04-23T21:42:33.100Z,7.90
2023-04-23T21:45:17.725Z,7.53
2023-04-23T21:48:02.172Z,7.57
2023-04-23T21:50:48.251Z,7.60
2023-04-23T21:53:32.067Z,7.57
2023-04-23T21:56:16.481Z,7.33
2023-04-23T21:59:00.732Z,6.80
2023-04-23T22:01:44.534Z,6.67
2023-04-23T22:04:29.418Z,6.97
2023-04-23T22:07:14.810Z,6.93
2023-04-23T22:10:00.347Z,6.90
2023-04-23T22:12:45.942Z,7.13
2023-04-23T22:15:29.966Z,6.83
2023-04-23T22:18:13.839Z,7.70
2023-04-23T22:20:57.663Z,7.30
2023-04-23T22:23:42.906Z,6.93
2023-04-23T22:26:26.879Z,7.23
2023-04-23T22:29:10.743Z,7.53
2023-04-23T22:31:54.599Z,7.07
2023-04-23T22:34:38.653Z,7.77
2023-04-23T22:37:22.983Z,7.53
2023-04-23T22:40:10.467Z,7.43
2023-04-23T22:42:54.330Z,7.47
2023-04-23T22:45:38.136Z,6.77
2023-04-23T22:48:22.202Z,7.50
2023-04-23T22:51:07.075Z,7.80
2023-04-23T22:53:50.901Z,8.30
2023-04-23T22:56:37.696Z,7.93
2023-04-23T22:59:22.043Z,8.17
2023-04-23T23:02:06.101Z,7.60
2023-04-23T23:04:50.055Z,8.10
2023-04-23T23:07:33.965Z,8.00
2023-04-23T23:10:17.909Z,7.07
2023-04-23T23:13:04.746Z,8.43
2023-04-23T23:15:48.828Z,7.40
2023-04-23T23:18:32.812Z,8.10
2023-04-23T23:21:17.124Z,8.23
2023-04-23T23:24:01.253Z,7.07
2023-04-23T23:26:45.244Z,7.97
2023-04-23T23:29:30.513Z,8.23
2023-04-23T23:32:14.358Z,7.13
2023-04-23T23:34:58.270Z,6.83
2023-04-23T23:37:42.248Z,6.83
2023-04-23T23:40:26.205Z,6.90
2023-04-23T23:43:10.137Z,6.63
2023-04-23T23:45:55.297Z,6.77
2023-04-23T23:48:39.371Z,6.53
2023-04-23T23:51:23.185Z,7.03
2023-04-23T23:54:07.631Z,7.17
2023-04-23T23:56:51.612Z,6.37
2023-04-23T23:59:35.424Z,10.13
